sensor_id;sensor_type;location;lat;lon;timestamp;P1;durP1;ratioP1;P2;durP2;ratioP2
57667;SDS011;43499;52.366;12.912;2022-08-03T00:00:28;9.70;;;4.55;;
57667;SDS011;43499;52.366;12.912;2022-08-03T00:01:29;8.68;;;4.70;;
57667;SDS011;43499;52.366;12.912;2022-08-03T00:02:32;5.80;;;4.32;;
57667;SDS011;43499;52.366;12.912;2022-08-03T00:03:33;8.10;;;4.85;;
57667;SDS011;43499;52.366;12.912;2022-08-03T00:04:36;8.70;;;4.20;;
57667;SDS011;43499;52.366;12.912;2022-08-03T00:05:37;9.88;;;5.38;;
57667;SDS011;43499;52.366;12.912;2022-08-03T00:06:39;9.23;;;4.95;;
57667;SDS011;43499;52.366;12.912;2022-08-03T00:07:41;6.07;;;4.07;;
57667;SDS011;43499;52.366;12.912;2022-08-03T00:08:43;7.53;;;4.20;;
57667;SDS011;43499;52.366;12.912;2022-08-03T00:09:44;6.07;;;4.60;;
57667;SDS011;43499;52.366;12.912;2022-08-03T00:10:46;11.65;;;4.97;;
57667;SDS011;43499;52.366;12.912;2022-08-03T00:11:47;8.82;;;4.28;;
57667;SDS011;43499;52.366;12.912;2022-08-03T00:12:49;7.70;;;5.07;;
57667;SDS011;43499;52.366;12.912;2022-08-03T00:13:52;6.70;;;4.25;;
57667;SDS011;43499;52.366;12.912;2022-08-03T00:14:54;9.23;;;4.80;;
57667;SDS011;43499;52.366;12.912;2022-08-03T00:15:55;10.55;;;4.90;;
57667;SDS011;43499;52.366;12.912;2022-08-03T00:16:57;7.60;;;4.35;;
57667;SDS011;43499;52.366;12.912;2022-08-03T00:17:58;11.77;;;4.47;;
57667;SDS011;43499;52.366;12.912;2022-08-03T00:19:00;8.63;;;5.30;;
57667;SDS011;43499;52.366;12.912;2022-08-03T00:20:02;10.10;;;4.72;;
57667;SDS011;43499;52.366;12.912;2022-08-03T00:21:05;7.03;;;4.45;;
57667;SDS011;43499;52.366;12.912;2022-08-03T00:22:06;9.43;;;4.50;;
57667;SDS011;43499;52.366;12.912;2022-08-03T00:23:09;8.43;;;4.15;;
57667;SDS011;43499;52.366;12.912;2022-08-03T00:24:10;9.45;;;4.75;;
57667;SDS011;43499;52.366;12.912;2022-08-03T00:25:12;14.43;;;5.18;;
57667;SDS011;43499;52.366;12.912;2022-08-03T00:26:13;13.07;;;5.00;;
57667;SDS011;43499;52.366;12.912;2022-08-03T00:27:15;9.48;;;4.57;;
57667;SDS011;43499;52.366;12.912;2022-08-03T00:28:16;10.02;;;6.03;;
57667;SDS011;43499;52.366;12.912;2022-08-03T00:29:20;9.48;;;5.93;;
57667;SDS011;43499;52.366;12.912;2022-08-03T00:30:21;7.30;;;4.95;;
57667;SDS011;43499;52.366;12.912;2022-08-03T00:31:23;9.70;;;5.60;;
57667;SDS011;43499;52.366;12.912;2022-08-03T00:32:24;10.55;;;4.70;;
57667;SDS011;43499;52.366;12.912;2022-08-03T00:33:26;10.02;;;4.82;;
57667;SDS011;43499;52.366;12.912;2022-08-03T00:34:27;9.85;;;5.78;;
57667;SDS011;43499;52.366;12.912;2022-08-03T00:35:30;11.38;;;5.68;;
57667;SDS011;43499;52.366;12.912;2022-08-03T00:36:32;7.05;;;5.32;;
57667;SDS011;43499;52.366;12.912;2022-08-03T00:37:34;9.13;;;5.38;;
57667;SDS011;43499;52.366;12.912;2022-08-03T00:38:35;10.13;;;5.60;;
57667;SDS011;43499;52.366;12.912;2022-08-03T00:39:37;13.10;;;5.75;;
57667;SDS011;43499;52.366;12.912;2022-08-03T00:40:40;10.70;;;5.68;;
57667;SDS011;43499;52.366;12.912;2022-08-03T00:41:42;10.55;;;5.28;;
57667;SDS011;43499;52.366;12.912;2022-08-03T00:42:47;9.55;;;5.47;;
57667;SDS011;43499;52.366;12.912;2022-08-03T00:43:51;11.00;;;5.47;;
57667;SDS011;43499;52.366;12.912;2022-08-03T00:44:53;11.77;;;5.20;;
57667;SDS011;43499;52.366;12.912;2022-08-03T00:45:55;7.68;;;5.40;;
57667;SDS011;43499;52.366;12.912;2022-08-03T00:46:56;9.95;;;5.57;;
57667;SDS011;43499;52.366;12.912;2022-08-03T00:47:59;9.32;;;4.90;;
57667;SDS011;43499;52.366;12.912;2022-08-03T00:49:01;9.00;;;5.22;;
57667;SDS011;43499;52.366;12.912;2022-08-03T00:50:03;12.15;;;5.22;;
57667;SDS011;43499;52.366;12.912;2022-08-03T00:51:05;11.75;;;5.43;;
57667;SDS011;43499;52.366;12.912;2022-08-03T00:52:07;11.52;;;5.30;;
57667;SDS011;43499;52.366;12.912;2022-08-03T00:53:10;15.30;;;5.57;;
57667;SDS011;43499;52.366;12.912;2022-08-03T00:54:13;12.30;;;5.25;;
57667;SDS011;43499;52.366;12.912;2022-08-03T00:55:15;8.82;;;5.00;;
57667;SDS011;43499;52.366;12.912;2022-08-03T00:56:17;13.15;;;6.40;;
57667;SDS011;43499;52.366;12.912;2022-08-03T00:57:19;7.25;;;5.32;;
57667;SDS011;43499;52.366;12.912;2022-08-03T00:58:21;8.70;;;5.25;;
57667;SDS011;43499;52.366;12.912;2022-08-03T00:59:23;8.60;;;5.28;;
57667;SDS011;43499;52.366;12.912;2022-08-03T01:00:27;10.90;;;5.43;;
57667;SDS011;43499;52.366;12.912;2022-08-03T01:01:28;9.23;;;5.22;;
57667;SDS011;43499;52.366;12.912;2022-08-03T01:02:33;9.77;;;5.28;;
57667;SDS011;43499;52.366;12.912;2022-08-03T01:03:35;9.23;;;6.07;;
57667;SDS011;43499;52.366;12.912;2022-08-03T01:04:37;9.57;;;5.25;;
57667;SDS011;43499;52.366;12.912;2022-08-03T01:05:39;12.70;;;5.88;;
57667;SDS011;43499;52.366;12.912;2022-08-03T01:06:51;8.95;;;5.28;;
57667;SDS011;43499;52.366;12.912;2022-08-03T01:08:03;7.35;;;4.93;;
57667;SDS011;43499;52.366;12.912;2022-08-03T01:09:11;8.13;;;5.47;;
57667;SDS011;43499;52.366;12.912;2022-08-03T01:10:23;10.65;;;5.35;;
57667;SDS011;43499;52.366;12.912;2022-08-03T01:11:30;10.57;;;5.85;;
57667;SDS011;43499;52.366;12.912;2022-08-03T01:12:37;8.75;;;5.90;;
57667;SDS011;43499;52.366;12.912;2022-08-03T01:13:44;9.38;;;5.60;;
57667;SDS011;43499;52.366;12.912;2022-08-03T01:14:57;10.95;;;5.82;;
57667;SDS011;43499;52.366;12.912;2022-08-03T01:16:09;7.55;;;5.47;;
57667;SDS011;43499;52.366;12.912;2022-08-03T01:17:18;10.05;;;5.82;;
57667;SDS011;43499;52.366;12.912;2022-08-03T01:18:24;8.98;;;5.13;;
57667;SDS011;43499;52.366;12.912;2022-08-03T01:19:35;14.45;;;5.10;;
57667;SDS011;43499;52.366;12.912;2022-08-03T01:20:46;7.57;;;5.28;;
57667;SDS011;43499;52.366;12.912;2022-08-03T01:21:53;12.63;;;5.82;;
57667;SDS011;43499;52.366;12.912;2022-08-03T01:24:36;9.07;;;4.78;;
57667;SDS011;43499;52.366;12.912;2022-08-03T01:25:54;11.80;;;5.78;;
57667;SDS011;43499;52.366;12.912;2022-08-03T01:27:08;9.27;;;5.78;;
57667;SDS011;43499;52.366;12.912;2022-08-03T01:28:18;11.50;;;5.63;;
57667;SDS011;43499;52.366;12.912;2022-08-03T01:31:04;8.27;;;5.40;;
57667;SDS011;43499;52.366;12.912;2022-08-03T01:32:09;12.82;;;6.35;;
57667;SDS011;43499;52.366;12.912;2022-08-03T01:33:14;7.43;;;4.68;;
57667;SDS011;43499;52.366;12.912;2022-08-03T01:34:21;6.70;;;4.82;;
57667;SDS011;43499;52.366;12.912;2022-08-03T01:35:27;7.78;;;5.18;;
57667;SDS011;43499;52.366;12.912;2022-08-03T01:36:34;12.18;;;5.38;;
57667;SDS011;43499;52.366;12.912;2022-08-03T01:37:39;11.70;;;5.30;;
57667;SDS011;43499;52.366;12.912;2022-08-03T01:38:45;8.50;;;5.50;;
57667;SDS011;43499;52.366;12.912;2022-08-03T01:39:50;11.40;;;5.65;;
57667;SDS011;43499;52.366;12.912;2022-08-03T01:40:57;7.20;;;4.80;;
57667;SDS011;43499;52.366;12.912;2022-08-03T01:42:05;9.55;;;5.00;;
57667;SDS011;43499;52.366;12.912;2022-08-03T01:43:12;10.70;;;5.25;;
57667;SDS011;43499;52.366;12.912;2022-08-03T01:44:17;18.52;;;6.18;;
57667;SDS011;43499;52.366;12.912;2022-08-03T01:45:23;8.98;;;5.45;;
57667;SDS011;43499;52.366;12.912;2022-08-03T01:46:26;10.05;;;5.20;;
57667;SDS011;43499;52.366;12.912;2022-08-03T01:47:30;10.05;;;4.88;;
57667;SDS011;43499;52.366;12.912;2022-08-03T01:48:32;10.20;;;4.90;;
57667;SDS011;43499;52.366;12.912;2022-08-03T01:49:37;8.60;;;4.70;;
57667;SDS011;43499;52.366;12.912;2022-08-03T01:50:40;9.68;;;5.38;;
57667;SDS011;43499;52.366;12.912;2022-08-03T01:51:44;8.90;;;5.20;;
57667;SDS011;43499;52.366;12.912;2022-08-03T01:52:47;8.88;;;4.93;;
57667;SDS011;43499;52.366;12.912;2022-08-03T01:53:51;9.20;;;5.32;;
57667;SDS011;43499;52.366;12.912;2022-08-03T01:54:54;10.60;;;5.68;;
57667;SDS011;43499;52.366;12.912;2022-08-03T01:55:57;9.82;;;4.93;;
57667;SDS011;43499;52.366;12.912;2022-08-03T01:56:59;9.55;;;4.78;;
57667;SDS011;43499;52.366;12.912;2022-08-03T01:58:03;7.78;;;4.82;;
57667;SDS011;43499;52.366;12.912;2022-08-03T01:59:05;8.32;;;4.70;;
57667;SDS011;43499;52.366;12.912;2022-08-03T02:00:09;9.38;;;5.10;;
57667;SDS011;43499;52.366;12.912;2022-08-03T02:01:12;6.97;;;4.97;;
57667;SDS011;43499;52.366;12.912;2022-08-03T02:02:17;7.82;;;4.65;;
57667;SDS011;43499;52.366;12.912;2022-08-03T02:03:20;6.53;;;4.50;;
57667;SDS011;43499;52.366;12.912;2022-08-03T02:04:23;7.15;;;4.68;;
57667;SDS011;43499;52.366;12.912;2022-08-03T02:05:26;6.03;;;4.35;;
57667;SDS011;43499;52.366;12.912;2022-08-03T02:06:31;7.47;;;4.65;;
57667;SDS011;43499;52.366;12.912;2022-08-03T02:07:34;9.48;;;4.32;;
57667;SDS011;43499;52.366;12.912;2022-08-03T02:08:37;6.95;;;4.63;;
57667;SDS011;43499;52.366;12.912;2022-08-03T02:09:40;9.90;;;5.00;;
57667;SDS011;43499;52.366;12.912;2022-08-03T02:10:45;15.63;;;6.28;;
57667;SDS011;43499;52.366;12.912;2022-08-03T02:11:49;11.43;;;4.90;;
57667;SDS011;43499;52.366;12.912;2022-08-03T02:12:52;12.18;;;4.20;;
57667;SDS011;43499;52.366;12.912;2022-08-03T02:13:54;7.50;;;4.30;;
57667;SDS011;43499;52.366;12.912;2022-08-03T02:14:59;9.13;;;4.32;;
57667;SDS011;43499;52.366;12.912;2022-08-03T02:16:02;8.35;;;4.22;;
57667;SDS011;43499;52.366;12.912;2022-08-03T02:17:07;6.07;;;4.45;;
57667;SDS011;43499;52.366;12.912;2022-08-03T02:18:10;13.18;;;5.25;;
57667;SDS011;43499;52.366;12.912;2022-08-03T02:19:12;10.63;;;4.68;;
57667;SDS011;43499;52.366;12.912;2022-08-03T02:20:14;8.93;;;4.55;;
57667;SDS011;43499;52.366;12.912;2022-08-03T02:21:18;10.80;;;4.53;;
57667;SDS011;43499;52.366;12.912;2022-08-03T02:22:20;9.45;;;5.05;;
57667;SDS011;43499;52.366;12.912;2022-08-03T02:23:24;7.15;;;4.55;;
57667;SDS011;43499;52.366;12.912;2022-08-03T02:24:25;9.95;;;4.30;;
57667;SDS011;43499;52.366;12.912;2022-08-03T02:25:28;5.55;;;3.97;;
57667;SDS011;43499;52.366;12.912;2022-08-03T02:26:31;11.88;;;4.97;;
57667;SDS011;43499;52.366;12.912;2022-08-03T02:27:38;10.93;;;4.30;;
57667;SDS011;43499;52.366;12.912;2022-08-03T02:28:44;8.63;;;4.68;;
57667;SDS011;43499;52.366;12.912;2022-08-03T02:29:50;15.50;;;5.05;;
57667;SDS011;43499;52.366;12.912;2022-08-03T02:30:53;10.57;;;3.97;;
57667;SDS011;43499;52.366;12.912;2022-08-03T02:31:57;6.78;;;4.25;;
57667;SDS011;43499;52.366;12.912;2022-08-03T02:33:02;8.18;;;4.10;;
57667;SDS011;43499;52.366;12.912;2022-08-03T02:34:07;12.07;;;4.47;;
57667;SDS011;43499;52.366;12.912;2022-08-03T02:35:12;6.80;;;4.30;;
57667;SDS011;43499;52.366;12.912;2022-08-03T02:36:18;8.98;;;4.25;;
57667;SDS011;43499;52.366;12.912;2022-08-03T02:37:24;7.35;;;3.92;;
57667;SDS011;43499;52.366;12.912;2022-08-03T02:38:30;9.88;;;4.30;;
57667;SDS011;43499;52.366;12.912;2022-08-03T02:39:33;9.55;;;3.90;;
57667;SDS011;43499;52.366;12.912;2022-08-03T02:40:37;7.72;;;4.18;;
57667;SDS011;43499;52.366;12.912;2022-08-03T02:41:41;6.35;;;4.05;;
57667;SDS011;43499;52.366;12.912;2022-08-03T02:42:46;6.88;;;4.32;;
57667;SDS011;43499;52.366;12.912;2022-08-03T02:43:53;6.60;;;4.20;;
57667;SDS011;43499;52.366;12.912;2022-08-03T02:44:59;8.45;;;4.22;;
57667;SDS011;43499;52.366;12.912;2022-08-03T02:46:03;6.35;;;4.43;;
57667;SDS011;43499;52.366;12.912;2022-08-03T02:47:08;9.40;;;4.85;;
57667;SDS011;43499;52.366;12.912;2022-08-03T02:48:14;13.00;;;4.47;;
57667;SDS011;43499;52.366;12.912;2022-08-03T02:49:19;9.43;;;4.50;;
57667;SDS011;43499;52.366;12.912;2022-08-03T02:50:21;8.32;;;4.20;;
57667;SDS011;43499;52.366;12.912;2022-08-03T02:51:24;7.57;;;4.53;;
57667;SDS011;43499;52.366;12.912;2022-08-03T02:52:29;8.20;;;4.25;;
57667;SDS011;43499;52.366;12.912;2022-08-03T02:53:35;9.00;;;3.90;;
57667;SDS011;43499;52.366;12.912;2022-08-03T02:54:37;6.35;;;4.20;;
57667;SDS011;43499;52.366;12.912;2022-08-03T02:55:40;7.82;;;4.25;;
57667;SDS011;43499;52.366;12.912;2022-08-03T02:56:42;6.25;;;4.25;;
57667;SDS011;43499;52.366;12.912;2022-08-03T02:57:46;8.27;;;4.10;;
57667;SDS011;43499;52.366;12.912;2022-08-03T02:58:48;7.53;;;4.07;;
57667;SDS011;43499;52.366;12.912;2022-08-03T02:59:52;10.25;;;4.07;;
57667;SDS011;43499;52.366;12.912;2022-08-03T03:00:55;6.45;;;3.70;;
57667;SDS011;43499;52.366;12.912;2022-08-03T03:01:58;5.75;;;3.83;;
57667;SDS011;43499;52.366;12.912;2022-08-03T03:03:00;11.50;;;3.80;;
57667;SDS011;43499;52.366;12.912;2022-08-03T03:04:07;6.07;;;3.67;;
57667;SDS011;43499;52.366;12.912;2022-08-03T03:05:11;6.50;;;3.72;;
57667;SDS011;43499;52.366;12.912;2022-08-03T03:06:14;6.63;;;3.72;;
57667;SDS011;43499;52.366;12.912;2022-08-03T03:07:17;5.90;;;3.75;;
57667;SDS011;43499;52.366;12.912;2022-08-03T03:08:20;7.40;;;3.97;;
57667;SDS011;43499;52.366;12.912;2022-08-03T03:09:21;9.25;;;3.65;;
57667;SDS011;43499;52.366;12.912;2022-08-03T03:10:25;4.35;;;3.80;;
57667;SDS011;43499;52.366;12.912;2022-08-03T03:11:26;7.70;;;3.72;;
57667;SDS011;43499;52.366;12.912;2022-08-03T03:12:30;8.95;;;3.90;;
57667;SDS011;43499;52.366;12.912;2022-08-03T03:13:32;8.32;;;4.05;;
57667;SDS011;43499;52.366;12.912;2022-08-03T03:14:35;4.85;;;4.30;;
57667;SDS011;43499;52.366;12.912;2022-08-03T03:15:36;5.90;;;3.55;;
57667;SDS011;43499;52.366;12.912;2022-08-03T03:16:40;7.32;;;3.90;;
57667;SDS011;43499;52.366;12.912;2022-08-03T03:17:41;8.30;;;3.63;;
57667;SDS011;43499;52.366;12.912;2022-08-03T03:18:45;6.63;;;3.80;;
57667;SDS011;43499;52.366;12.912;2022-08-03T03:19:51;9.07;;;4.00;;
57667;SDS011;43499;52.366;12.912;2022-08-03T03:20:54;5.97;;;3.70;;
57667;SDS011;43499;52.366;12.912;2022-08-03T03:21:56;9.55;;;3.85;;
57667;SDS011;43499;52.366;12.912;2022-08-03T03:23:01;5.45;;;3.58;;
57667;SDS011;43499;52.366;12.912;2022-08-03T03:24:05;4.82;;;3.42;;
57667;SDS011;43499;52.366;12.912;2022-08-03T03:25:08;5.53;;;3.53;;
57667;SDS011;43499;52.366;12.912;2022-08-03T03:26:10;5.97;;;3.40;;
57667;SDS011;43499;52.366;12.912;2022-08-03T03:27:14;5.22;;;3.60;;
57667;SDS011;43499;52.366;12.912;2022-08-03T03:28:15;6.18;;;3.88;;
57667;SDS011;43499;52.366;12.912;2022-08-03T03:29:18;5.88;;;3.50;;
57667;SDS011;43499;52.366;12.912;2022-08-03T03:30:19;7.15;;;4.05;;
57667;SDS011;43499;52.366;12.912;2022-08-03T03:31:22;5.20;;;3.72;;
57667;SDS011;43499;52.366;12.912;2022-08-03T03:32:25;6.43;;;3.67;;
57667;SDS011;43499;52.366;12.912;2022-08-03T03:33:26;6.07;;;3.55;;
57667;SDS011;43499;52.366;12.912;2022-08-03T03:34:28;5.50;;;3.70;;
57667;SDS011;43499;52.366;12.912;2022-08-03T03:35:32;6.43;;;4.28;;
57667;SDS011;43499;52.366;12.912;2022-08-03T03:36:35;8.48;;;3.92;;
57667;SDS011;43499;52.366;12.912;2022-08-03T03:37:37;7.88;;;3.50;;
57667;SDS011;43499;52.366;12.912;2022-08-03T03:38:39;6.55;;;3.38;;
57667;SDS011;43499;52.366;12.912;2022-08-03T03:39:41;6.03;;;3.58;;
57667;SDS011;43499;52.366;12.912;2022-08-03T03:40:42;4.28;;;3.42;;
57667;SDS011;43499;52.366;12.912;2022-08-03T03:41:45;4.65;;;3.30;;
57667;SDS011;43499;52.366;12.912;2022-08-03T03:42:47;6.45;;;3.65;;
57667;SDS011;43499;52.366;12.912;2022-08-03T03:43:49;7.90;;;3.60;;
57667;SDS011;43499;52.366;12.912;2022-08-03T03:44:52;13.65;;;3.42;;
57667;SDS011;43499;52.366;12.912;2022-08-03T03:45:53;6.47;;;3.67;;
57667;SDS011;43499;52.366;12.912;2022-08-03T03:46:57;7.97;;;3.80;;
57667;SDS011;43499;52.366;12.912;2022-08-03T03:47:58;7.82;;;3.22;;
57667;SDS011;43499;52.366;12.912;2022-08-03T03:49:01;8.02;;;3.58;;
57667;SDS011;43499;52.366;12.912;2022-08-03T03:50:03;7.32;;;4.13;;
57667;SDS011;43499;52.366;12.912;2022-08-03T03:51:07;4.03;;;3.13;;
57667;SDS011;43499;52.366;12.912;2022-08-03T03:52:09;5.93;;;3.85;;
57667;SDS011;43499;52.366;12.912;2022-08-03T03:53:12;6.45;;;3.22;;
57667;SDS011;43499;52.366;12.912;2022-08-03T03:54:14;6.50;;;3.47;;
57667;SDS011;43499;52.366;12.912;2022-08-03T03:55:16;5.13;;;3.55;;
57667;SDS011;43499;52.366;12.912;2022-08-03T03:56:18;6.32;;;3.58;;
57667;SDS011;43499;52.366;12.912;2022-08-03T03:57:20;6.90;;;3.17;;
57667;SDS011;43499;52.366;12.912;2022-08-03T03:58:22;8.02;;;3.30;;
57667;SDS011;43499;52.366;12.912;2022-08-03T03:59:24;4.30;;;3.17;;
57667;SDS011;43499;52.366;12.912;2022-08-03T04:00:25;6.88;;;3.78;;
57667;SDS011;43499;52.366;12.912;2022-08-03T04:01:27;5.78;;;3.75;;
57667;SDS011;43499;52.366;12.912;2022-08-03T04:02:28;9.50;;;3.55;;
57667;SDS011;43499;52.366;12.912;2022-08-03T04:03:30;6.82;;;3.45;;
57667;SDS011;43499;52.366;12.912;2022-08-03T04:04:31;6.97;;;3.60;;
57667;SDS011;43499;52.366;12.912;2022-08-03T04:05:51;5.63;;;3.55;;
57667;SDS011;43499;52.366;12.912;2022-08-03T04:08:31;4.65;;;4.10;;
57667;SDS011;43499;52.366;12.912;2022-08-03T04:09:50;6.30;;;3.70;;
57667;SDS011;43499;52.366;12.912;2022-08-03T04:11:15;7.80;;;3.63;;
57667;SDS011;43499;52.366;12.912;2022-08-03T04:12:20;5.50;;;3.63;;
57667;SDS011;43499;52.366;12.912;2022-08-03T04:13:24;4.60;;;3.22;;
57667;SDS011;43499;52.366;12.912;2022-08-03T04:14:31;3.67;;;3.08;;
57667;SDS011;43499;52.366;12.912;2022-08-03T04:15:36;4.28;;;3.40;;
57667;SDS011;43499;52.366;12.912;2022-08-03T04:16:40;9.15;;;4.20;;
57667;SDS011;43499;52.366;12.912;2022-08-03T04:17:45;8.05;;;3.35;;
57667;SDS011;43499;52.366;12.912;2022-08-03T04:18:51;7.05;;;3.47;;
57667;SDS011;43499;52.366;12.912;2022-08-03T04:19:56;8.02;;;3.63;;
57667;SDS011;43499;52.366;12.912;2022-08-03T04:21:02;16.83;;;4.00;;
57667;SDS011;43499;52.366;12.912;2022-08-03T04:22:06;5.47;;;3.67;;
57667;SDS011;43499;52.366;12.912;2022-08-03T04:23:13;9.80;;;3.05;;
57667;SDS011;43499;52.366;12.912;2022-08-03T04:24:20;11.90;;;3.50;;
57667;SDS011;43499;52.366;12.912;2022-08-03T04:25:23;5.55;;;3.38;;
57667;SDS011;43499;52.366;12.912;2022-08-03T04:26:26;6.40;;;3.35;;
57667;SDS011;43499;52.366;12.912;2022-08-03T04:27:33;7.53;;;3.30;;
57667;SDS011;43499;52.366;12.912;2022-08-03T04:28:36;6.45;;;3.80;;
57667;SDS011;43499;52.366;12.912;2022-08-03T04:29:42;8.70;;;3.95;;
57667;SDS011;43499;52.366;12.912;2022-08-03T04:30:48;12.48;;;3.80;;
57667;SDS011;43499;52.366;12.912;2022-08-03T04:31:53;8.60;;;3.80;;
57667;SDS011;43499;52.366;12.912;2022-08-03T04:32:58;7.72;;;3.97;;
57667;SDS011;43499;52.366;12.912;2022-08-03T04:34:01;7.28;;;3.65;;
57667;SDS011;43499;52.366;12.912;2022-08-03T04:35:04;9.73;;;3.40;;
57667;SDS011;43499;52.366;12.912;2022-08-03T04:36:08;5.80;;;3.20;;
57667;SDS011;43499;52.366;12.912;2022-08-03T04:37:17;9.27;;;3.50;;
57667;SDS011;43499;52.366;12.912;2022-08-03T04:38:27;7.93;;;3.67;;
57667;SDS011;43499;52.366;12.912;2022-08-03T04:39:31;5.80;;;4.20;;
57667;SDS011;43499;52.366;12.912;2022-08-03T04:40:33;9.60;;;3.58;;
57667;SDS011;43499;52.366;12.912;2022-08-03T04:41:37;7.75;;;3.30;;
57667;SDS011;43499;52.366;12.912;2022-08-03T04:42:39;5.13;;;3.55;;
57667;SDS011;43499;52.366;12.912;2022-08-03T04:43:42;4.20;;;3.05;;
57667;SDS011;43499;52.366;12.912;2022-08-03T04:44:44;4.63;;;3.55;;
57667;SDS011;43499;52.366;12.912;2022-08-03T04:45:47;6.10;;;3.65;;
57667;SDS011;43499;52.366;12.912;2022-08-03T04:46:49;5.05;;;3.10;;
57667;SDS011;43499;52.366;12.912;2022-08-03T04:47:53;5.10;;;3.47;;
57667;SDS011;43499;52.366;12.912;2022-08-03T04:48:54;6.15;;;3.67;;
57667;SDS011;43499;52.366;12.912;2022-08-03T04:49:57;5.03;;;3.55;;
57667;SDS011;43499;52.366;12.912;2022-08-03T04:51:00;8.30;;;3.75;;
57667;SDS011;43499;52.366;12.912;2022-08-03T04:52:04;5.35;;;3.13;;
57667;SDS011;43499;52.366;12.912;2022-08-03T04:53:07;6.30;;;3.00;;
57667;SDS011;43499;52.366;12.912;2022-08-03T04:54:12;7.50;;;3.47;;
57667;SDS011;43499;52.366;12.912;2022-08-03T04:55:23;12.13;;;4.28;;
57667;SDS011;43499;52.366;12.912;2022-08-03T04:56:27;7.25;;;3.58;;
57667;SDS011;43499;52.366;12.912;2022-08-03T04:57:28;5.10;;;3.30;;
57667;SDS011;43499;52.366;12.912;2022-08-03T04:58:30;3.83;;;3.10;;
57667;SDS011;43499;52.366;12.912;2022-08-03T04:59:31;6.28;;;3.60;;
57667;SDS011;43499;52.366;12.912;2022-08-03T05:00:33;7.72;;;3.63;;
57667;SDS011;43499;52.366;12.912;2022-08-03T05:01:34;4.22;;;3.40;;
57667;SDS011;43499;52.366;12.912;2022-08-03T05:02:37;4.25;;;3.38;;
57667;SDS011;43499;52.366;12.912;2022-08-03T05:03:38;5.22;;;3.63;;
57667;SDS011;43499;52.366;12.912;2022-08-03T05:04:40;8.40;;;3.67;;
57667;SDS011;43499;52.366;12.912;2022-08-03T05:05:45;8.00;;;3.80;;
57667;SDS011;43499;52.366;12.912;2022-08-03T05:06:48;9.15;;;3.42;;
57667;SDS011;43499;52.366;12.912;2022-08-03T05:07:49;9.32;;;4.13;;
57667;SDS011;43499;52.366;12.912;2022-08-03T05:08:51;8.80;;;3.47;;
57667;SDS011;43499;52.366;12.912;2022-08-03T05:09:53;5.18;;;3.47;;
57667;SDS011;43499;52.366;12.912;2022-08-03T05:10:56;8.20;;;3.65;;
57667;SDS011;43499;52.366;12.912;2022-08-03T05:11:57;4.65;;;3.30;;
57667;SDS011;43499;52.366;12.912;2022-08-03T05:13:00;6.32;;;3.80;;
57667;SDS011;43499;52.366;12.912;2022-08-03T05:14:01;4.03;;;3.25;;
57667;SDS011;43499;52.366;12.912;2022-08-03T05:15:04;12.18;;;3.80;;
57667;SDS011;43499;52.366;12.912;2022-08-03T05:16:06;10.23;;;4.22;;
57667;SDS011;43499;52.366;12.912;2022-08-03T05:17:08;7.20;;;3.40;;
57667;SDS011;43499;52.366;12.912;2022-08-03T05:18:09;8.75;;;3.70;;
57667;SDS011;43499;52.366;12.912;2022-08-03T05:19:12;8.30;;;3.70;;
57667;SDS011;43499;52.366;12.912;2022-08-03T05:20:13;6.80;;;3.75;;
57667;SDS011;43499;52.366;12.912;2022-08-03T05:21:15;5.88;;;3.58;;
57667;SDS011;43499;52.366;12.912;2022-08-03T05:22:16;5.80;;;3.35;;
57667;SDS011;43499;52.366;12.912;2022-08-03T05:23:18;4.40;;;3.13;;
57667;SDS011;43499;52.366;12.912;2022-08-03T05:24:20;8.73;;;4.45;;
57667;SDS011;43499;52.366;12.912;2022-08-03T05:25:23;6.63;;;3.90;;
57667;SDS011;43499;52.366;12.912;2022-08-03T05:26:26;6.72;;;3.53;;
57667;SDS011;43499;52.366;12.912;2022-08-03T05:27:27;11.40;;;3.63;;
57667;SDS011;43499;52.366;12.912;2022-08-03T05:28:29;4.70;;;3.13;;
57667;SDS011;43499;52.366;12.912;2022-08-03T05:29:30;4.68;;;3.70;;
57667;SDS011;43499;52.366;12.912;2022-08-03T05:30:33;6.28;;;3.90;;
57667;SDS011;43499;52.366;12.912;2022-08-03T05:31:34;6.13;;;3.60;;
57667;SDS011;43499;52.366;12.912;2022-08-03T05:32:36;8.38;;;3.88;;
57667;SDS011;43499;52.366;12.912;2022-08-03T05:33:38;9.38;;;3.58;;
57667;SDS011;43499;52.366;12.912;2022-08-03T05:34:40;9.77;;;3.60;;
57667;SDS011;43499;52.366;12.912;2022-08-03T05:35:41;10.35;;;3.50;;
57667;SDS011;43499;52.366;12.912;2022-08-03T05:36:44;5.38;;;3.72;;
57667;SDS011;43499;52.366;12.912;2022-08-03T05:37:45;5.57;;;3.22;;
57667;SDS011;43499;52.366;12.912;2022-08-03T05:38:47;7.53;;;3.63;;
57667;SDS011;43499;52.366;12.912;2022-08-03T05:39:51;6.03;;;3.28;;
57667;SDS011;43499;52.366;12.912;2022-08-03T05:40:55;4.90;;;3.08;;
57667;SDS011;43499;52.366;12.912;2022-08-03T05:41:56;4.53;;;3.40;;
57667;SDS011;43499;52.366;12.912;2022-08-03T05:43:00;7.75;;;3.72;;
57667;SDS011;43499;52.366;12.912;2022-08-03T05:44:02;5.82;;;3.45;;
57667;SDS011;43499;52.366;12.912;2022-08-03T05:45:04;4.03;;;2.88;;
57667;SDS011;43499;52.366;12.912;2022-08-03T05:46:20;5.50;;;3.40;;
57667;SDS011;43499;52.366;12.912;2022-08-03T05:47:23;5.13;;;3.58;;
57667;SDS011;43499;52.366;12.912;2022-08-03T05:48:24;7.95;;;3.20;;
57667;SDS011;43499;52.366;12.912;2022-08-03T05:49:27;6.85;;;3.50;;
57667;SDS011;43499;52.366;12.912;2022-08-03T05:50:28;6.72;;;3.40;;
57667;SDS011;43499;52.366;12.912;2022-08-03T05:51:40;18.55;;;3.65;;
57667;SDS011;43499;52.366;12.912;2022-08-03T05:52:42;7.82;;;3.50;;
57667;SDS011;43499;52.366;12.912;2022-08-03T05:53:44;5.75;;;3.30;;
57667;SDS011;43499;52.366;12.912;2022-08-03T05:54:46;9.43;;;3.67;;
57667;SDS011;43499;52.366;12.912;2022-08-03T05:55:47;7.18;;;3.45;;
57667;SDS011;43499;52.366;12.912;2022-08-03T05:56:51;5.65;;;3.53;;
57667;SDS011;43499;52.366;12.912;2022-08-03T05:57:52;6.57;;;3.45;;
57667;SDS011;43499;52.366;12.912;2022-08-03T05:58:54;8.23;;;3.45;;
57667;SDS011;43499;52.366;12.912;2022-08-03T05:59:55;9.15;;;3.85;;
57667;SDS011;43499;52.366;12.912;2022-08-03T06:00:57;10.13;;;3.35;;
57667;SDS011;43499;52.366;12.912;2022-08-03T06:01:58;5.75;;;3.60;;
57667;SDS011;43499;52.366;12.912;2022-08-03T06:03:00;5.55;;;3.25;;
57667;SDS011;43499;52.366;12.912;2022-08-03T06:04:01;7.75;;;3.30;;
57667;SDS011;43499;52.366;12.912;2022-08-03T06:05:04;5.63;;;3.42;;
57667;SDS011;43499;52.366;12.912;2022-08-03T06:06:06;7.22;;;4.60;;
57667;SDS011;43499;52.366;12.912;2022-08-03T06:07:08;7.10;;;3.38;;
57667;SDS011;43499;52.366;12.912;2022-08-03T06:08:09;6.25;;;3.10;;
57667;SDS011;43499;52.366;12.912;2022-08-03T06:09:11;5.97;;;3.60;;
57667;SDS011;43499;52.366;12.912;2022-08-03T06:10:12;5.00;;;3.35;;
57667;SDS011;43499;52.366;12.912;2022-08-03T06:11:14;4.90;;;3.80;;
57667;SDS011;43499;52.366;12.912;2022-08-03T06:12:17;7.20;;;3.65;;
57667;SDS011;43499;52.366;12.912;2022-08-03T06:13:19;5.35;;;3.35;;
57667;SDS011;43499;52.366;12.912;2022-08-03T06:14:21;4.55;;;3.38;;
57667;SDS011;43499;52.366;12.912;2022-08-03T06:15:23;5.90;;;3.42;;
57667;SDS011;43499;52.366;12.912;2022-08-03T06:16:24;7.45;;;3.92;;
57667;SDS011;43499;52.366;12.912;2022-08-03T06:17:26;9.40;;;4.00;;
57667;SDS011;43499;52.366;12.912;2022-08-03T06:18:27;7.30;;;3.45;;
57667;SDS011;43499;52.366;12.912;2022-08-03T06:19:29;5.93;;;3.88;;
57667;SDS011;43499;52.366;12.912;2022-08-03T06:20:30;4.90;;;3.65;;